Colquitt, Georgia
Current Conditions -  °F | °C
As of 11:15 PM on Monday 22 Dec 2014 (Local Time) from KBGE Reporting Station
Moderate Fog Moderate Fog  
Wind Chill: 63°   Ceiling: 200
Heat Index: 63°   Visibility: 0.25mi
Dew Point: 63°   Wind: 0mph
Humidity: 100%   Direction: NA
Pressure: 29.88"   Gusts: NA
Location:  31.17°N, 84.73°W
Report Text: KBGE 230415Z AUTO 00000KT 1/4SM FG OVC002 17/17 A2988 RMK AO2 LTG DSNT SE
Loading
Personal Weather Stations






























Interactive Weather Map New forecast layout! Learn more

10-Day Weather Forecast

Advertisements
Track Severe Weather on mobile